createdAt,value
2023-03-08T00:00:55.911Z,4.40
2023-03-08T00:02:28.644Z,4.68
2023-03-08T00:04:01.577Z,4.63
2023-03-08T00:05:38.362Z,4.40
2023-03-08T00:07:11.093Z,4.10
2023-03-08T00:08:44.216Z,4.70
2023-03-08T00:10:17.084Z,4.80
2023-03-08T00:11:49.839Z,4.43
2023-03-08T00:13:22.520Z,4.15
2023-03-08T00:14:55.222Z,4.68
2023-03-08T00:16:28.171Z,5.10
2023-03-08T00:18:00.923Z,4.72
2023-03-08T00:19:33.937Z,4.53
2023-03-08T00:21:10.450Z,4.60
2023-03-08T00:22:43.845Z,4.90
2023-03-08T00:24:17.625Z,4.47
2023-03-08T00:25:52.078Z,5.05
2023-03-08T00:27:24.836Z,4.53
2023-03-08T00:28:57.730Z,4.88
2023-03-08T00:30:32.925Z,4.20
2023-03-08T00:32:05.804Z,4.50
2023-03-08T00:33:38.214Z,3.90
2023-03-08T00:35:11.260Z,4.30
2023-03-08T00:36:45.323Z,4.10
2023-03-08T00:38:17.066Z,4.07
2023-03-08T00:39:52.073Z,4.40
2023-03-08T00:41:24.989Z,4.05
2023-03-08T00:42:56.728Z,4.20
2023-03-08T00:44:29.420Z,4.00
2023-03-08T00:46:01.263Z,3.92
2023-03-08T00:47:35.373Z,4.07
2023-03-08T00:49:08.109Z,4.38
2023-03-08T00:50:40.846Z,4.05
2023-03-08T00:52:14.872Z,3.80
2023-03-08T00:53:47.976Z,3.95
2023-03-08T00:55:20.682Z,4.10
2023-03-08T00:56:53.393Z,4.00
2023-03-08T00:58:28.487Z,3.35
2023-03-08T01:00:01.246Z,4.25
2023-03-08T01:01:34.108Z,3.90
2023-03-08T01:03:06.854Z,4.00
2023-03-08T01:04:39.555Z,3.80
2023-03-08T01:06:15.389Z,4.32
2023-03-08T01:07:49.436Z,4.20
2023-03-08T01:09:22.143Z,4.18
2023-03-08T01:10:57.519Z,4.20
2023-03-08T01:12:30.362Z,4.35
2023-03-08T01:14:03.204Z,4.20
2023-03-08T01:15:36.885Z,3.95
2023-03-08T01:17:09.574Z,3.88
2023-03-08T01:18:41.311Z,4.03
2023-03-08T01:20:14.429Z,3.85
2023-03-08T01:21:47.135Z,4.07
2023-03-08T01:23:21.147Z,4.15
2023-03-08T01:24:52.884Z,3.72
2023-03-08T01:26:27.819Z,4.40
2023-03-08T01:27:59.654Z,4.28
2023-03-08T01:29:32.330Z,3.90
2023-03-08T01:31:05.927Z,4.35
2023-03-08T01:32:38.661Z,4.40
2023-03-08T01:34:11.399Z,4.38
2023-03-08T01:35:43.264Z,4.10
2023-03-08T01:37:16.028Z,4.50
2023-03-08T01:38:50.264Z,4.68
2023-03-08T01:40:23.387Z,5.10
2023-03-08T01:41:56.106Z,4.90
2023-03-08T01:43:31.042Z,4.30
2023-03-08T01:45:06.528Z,5.13
2023-03-08T01:46:39.241Z,7.00
2023-03-08T01:48:12.292Z,6.93
2023-03-08T01:49:45.022Z,7.25
2023-03-08T01:51:21.181Z,6.82
2023-03-08T01:52:56.378Z,6.10
2023-03-08T01:54:36.004Z,5.00
2023-03-08T01:56:12.457Z,4.70
2023-03-08T01:57:48.631Z,5.80
2023-03-08T01:59:23.804Z,5.28
2023-03-08T02:00:55.590Z,4.78
2023-03-08T02:02:34.571Z,4.90
2023-03-08T02:04:07.909Z,5.13
2023-03-08T02:05:43.027Z,4.72
2023-03-08T02:07:16.051Z,4.90
2023-03-08T02:08:48.851Z,5.88
2023-03-08T02:10:22.500Z,6.07
2023-03-08T02:11:59.229Z,7.55
2023-03-08T02:13:31.317Z,6.82
2023-03-08T02:15:05.859Z,6.43
2023-03-08T02:16:39.279Z,6.57
2023-03-08T02:18:11.107Z,6.43
2023-03-08T02:19:49.362Z,6.68
2023-03-08T02:21:21.466Z,6.65
2023-03-08T02:22:55.789Z,6.45
2023-03-08T02:24:28.462Z,6.72
2023-03-08T02:26:04.445Z,6.85
2023-03-08T02:27:37.132Z,7.28
2023-03-08T02:29:09.826Z,7.72
2023-03-08T02:30:41.571Z,8.50
2023-03-08T02:32:15.779Z,9.07
2023-03-08T02:33:48.507Z,8.70
2023-03-08T02:35:20.362Z,8.88
2023-03-08T02:36:53.354Z,8.98
2023-03-08T02:38:27.367Z,9.02
2023-03-08T02:40:00.163Z,8.57
2023-03-08T02:41:32.834Z,8.27
2023-03-08T02:43:05.112Z,8.55
2023-03-08T02:44:37.784Z,8.90
2023-03-08T02:46:12.411Z,8.80
2023-03-08T02:47:44.162Z,9.35
2023-03-08T02:49:16.870Z,9.00
2023-03-08T02:50:49.613Z,8.57
2023-03-08T02:52:22.360Z,8.57
2023-03-08T02:53:55.434Z,9.13
2023-03-08T02:55:28.117Z,9.18
2023-03-08T02:57:00.815Z,8.70
2023-03-08T02:58:32.562Z,9.15
2023-03-08T03:00:06.000Z,10.10
2023-03-08T03:01:38.722Z,9.10
2023-03-08T03:03:10.515Z,10.13
2023-03-08T03:04:43.202Z,8.75
2023-03-08T03:06:17.244Z,9.70
2023-03-08T03:07:50.336Z,9.07
2023-03-08T03:09:45.157Z,9.63
2023-03-08T03:11:19.834Z,8.88
2023-03-08T03:16:18.687Z,9.02
2023-03-08T03:17:51.416Z,8.43
2023-03-08T03:19:23.160Z,8.38
2023-03-08T03:20:55.870Z,9.13
2023-03-08T03:22:29.076Z,8.98
2023-03-08T03:24:01.782Z,8.80
2023-03-08T03:25:39.083Z,9.52
2023-03-08T03:27:11.814Z,9.30
2023-03-08T03:28:44.741Z,9.02
2023-03-08T03:30:17.596Z,9.27
2023-03-08T03:31:50.340Z,8.85
2023-03-08T03:33:23.042Z,9.00
2023-03-08T03:34:54.876Z,9.57
2023-03-08T03:36:27.617Z,9.57
2023-03-08T03:38:00.346Z,9.30
2023-03-08T03:39:35.518Z,9.43
2023-03-08T03:41:12.071Z,9.40
2023-03-08T03:42:44.776Z,9.25
2023-03-08T03:44:16.590Z,9.20
2023-03-08T03:45:56.660Z,9.23
2023-03-08T03:47:30.039Z,9.20
2023-03-08T03:49:02.814Z,9.10
2023-03-08T03:50:35.513Z,9.30
2023-03-08T03:52:08.225Z,9.77
2023-03-08T03:53:40.208Z,9.27
2023-03-08T03:55:12.924Z,9.75
2023-03-08T03:56:46.958Z,9.25
2023-03-08T03:58:18.714Z,9.50
2023-03-08T03:59:51.418Z,8.68
2023-03-08T04:01:26.618Z,9.90
2023-03-08T04:02:59.334Z,9.85
2023-03-08T04:04:32.049Z,9.35
2023-03-08T04:06:09.439Z,9.63
2023-03-08T04:07:42.177Z,10.10
2023-03-08T04:09:15.591Z,10.95
2023-03-08T04:10:48.287Z,13.25
2023-03-08T04:12:22.372Z,15.75
2023-03-08T04:13:55.567Z,18.55
2023-03-08T04:15:28.817Z,25.77
2023-03-08T04:17:01.590Z,19.63
2023-03-08T04:18:34.282Z,11.73
2023-03-08T04:20:08.459Z,10.00
2023-03-08T04:21:41.177Z,10.90
2023-03-08T04:23:12.958Z,13.02
2023-03-08T04:24:45.640Z,10.55
2023-03-08T04:26:18.673Z,10.70
2023-03-08T04:27:52.715Z,11.05
2023-03-08T04:29:25.489Z,10.10
2023-03-08T04:30:58.232Z,10.95
2023-03-08T04:32:32.604Z,10.38
2023-03-08T04:34:05.786Z,10.27
2023-03-08T04:35:38.550Z,10.50
2023-03-08T04:37:12.529Z,10.40
2023-03-08T04:38:46.517Z,10.38
2023-03-08T04:40:19.487Z,10.00
2023-03-08T04:41:52.185Z,10.23
2023-03-08T04:43:25.330Z,10.65
2023-03-08T04:44:58.036Z,9.90
2023-03-08T04:46:30.908Z,9.90
2023-03-08T04:48:02.709Z,10.48
2023-03-08T04:49:35.410Z,10.00
2023-03-08T04:51:09.486Z,10.60
2023-03-08T04:52:42.193Z,10.55
2023-03-08T04:54:14.894Z,10.20
2023-03-08T04:55:46.636Z,10.05
2023-03-08T04:57:20.937Z,10.00
2023-03-08T04:58:55.031Z,9.98
2023-03-08T05:00:26.782Z,10.93
2023-03-08T05:01:59.520Z,11.70
2023-03-08T05:03:32.229Z,13.50
2023-03-08T05:05:05.561Z,10.73
2023-03-08T05:06:38.564Z,9.57
2023-03-08T05:08:11.275Z,10.10
2023-03-08T05:09:44.031Z,10.25
2023-03-08T05:11:20.249Z,10.35
2023-03-08T05:12:52.991Z,10.13
2023-03-08T05:14:27.247Z,9.63
2023-03-08T05:16:00.123Z,10.27
2023-03-08T05:17:32.876Z,10.18
2023-03-08T05:19:05.657Z,10.52
2023-03-08T05:20:38.403Z,10.50
2023-03-08T05:22:11.152Z,10.18
2023-03-08T05:23:44.076Z,9.73
2023-03-08T05:25:15.927Z,10.45
2023-03-08T05:26:48.662Z,10.07
2023-03-08T05:28:21.747Z,11.15
2023-03-08T05:29:55.801Z,9.75
2023-03-08T05:31:28.872Z,10.18
2023-03-08T05:33:00.814Z,9.63
2023-03-08T05:34:33.525Z,10.18
2023-03-08T05:36:07.923Z,10.02
2023-03-08T05:37:40.084Z,9.80
2023-03-08T05:39:12.795Z,10.20
2023-03-08T05:40:45.500Z,10.40
2023-03-08T05:42:18.316Z,10.05
2023-03-08T05:43:50.994Z,10.68
2023-03-08T05:45:25.091Z,10.05
2023-03-08T05:46:57.821Z,9.50
2023-03-08T05:48:31.725Z,9.50
2023-03-08T05:50:03.990Z,9.43
2023-03-08T05:51:36.690Z,10.40
2023-03-08T05:53:09.447Z,9.13
2023-03-08T05:54:41.251Z,9.48
2023-03-08T05:56:15.625Z,9.65
2023-03-08T05:57:48.338Z,9.70
2023-03-08T05:59:21.061Z,10.13
2023-03-08T06:00:55.120Z,9.85
2023-03-08T06:02:29.747Z,9.55
2023-03-08T06:04:02.506Z,10.23
2023-03-08T06:05:35.609Z,10.02
2023-03-08T06:07:07.365Z,9.50
2023-03-08T06:08:40.174Z,9.93
2023-03-08T06:10:13.116Z,9.65
2023-03-08T06:11:45.826Z,9.23
2023-03-08T06:13:18.529Z,9.23
2023-03-08T06:14:51.207Z,9.25
2023-03-08T06:16:25.439Z,9.93
2023-03-08T06:17:58.207Z,9.20
2023-03-08T06:19:31.063Z,9.13
2023-03-08T06:21:05.943Z,9.90
2023-03-08T06:22:38.785Z,9.88
2023-03-08T06:24:11.545Z,9.23
2023-03-08T06:25:44.981Z,8.90
2023-03-08T06:27:18.325Z,9.60
2023-03-08T06:28:51.047Z,9.65
2023-03-08T06:30:23.924Z,9.57
2023-03-08T06:31:59.023Z,8.63
2023-03-08T06:33:34.387Z,9.50
2023-03-08T06:35:07.996Z,9.50
2023-03-08T06:36:40.941Z,9.95
2023-03-08T06:38:13.621Z,9.40
2023-03-08T06:39:46.400Z,9.23
2023-03-08T06:41:20.773Z,9.55
2023-03-08T06:42:53.512Z,9.27
2023-03-08T06:44:26.424Z,8.95
2023-03-08T06:45:59.251Z,9.23
2023-03-08T06:47:33.472Z,8.60
2023-03-08T06:49:07.692Z,9.43
2023-03-08T06:50:40.402Z,9.07
2023-03-08T06:52:13.112Z,9.55
2023-03-08T06:53:46.248Z,9.43
2023-03-08T06:55:19.096Z,9.23
2023-03-08T06:56:51.814Z,9.15
2023-03-08T06:58:24.540Z,9.35
2023-03-08T06:59:57.338Z,8.95
2023-03-08T07:01:30.114Z,8.65
2023-03-08T07:03:04.270Z,8.68
2023-03-08T07:04:37.069Z,8.98
2023-03-08T07:06:10.889Z,9.07
2023-03-08T07:07:43.881Z,9.25
2023-03-08T07:09:16.646Z,9.77
2023-03-08T07:10:49.408Z,9.07
2023-03-08T07:12:22.160Z,9.15
2023-03-08T07:13:54.917Z,9.70
2023-03-08T07:15:27.828Z,8.57
2023-03-08T07:17:00.727Z,9.15
2023-03-08T07:18:34.767Z,9.20
2023-03-08T07:20:09.205Z,9.60
2023-03-08T07:21:44.314Z,9.35
2023-03-08T07:23:17.102Z,9.25
2023-03-08T07:24:49.872Z,9.73
2023-03-08T07:26:22.587Z,8.90
2023-03-08T07:27:55.472Z,9.48
2023-03-08T07:29:27.396Z,9.85
2023-03-08T07:31:00.153Z,10.00
2023-03-08T07:32:33.053Z,10.30
2023-03-08T07:34:07.183Z,10.15
2023-03-08T07:35:40.214Z,10.23
2023-03-08T07:37:13.565Z,10.10
2023-03-08T07:38:47.197Z,10.38
2023-03-08T07:40:20.508Z,10.52
2023-03-08T07:41:53.324Z,10.65
2023-03-08T07:43:26.245Z,10.60
2023-03-08T07:44:58.982Z,10.63
2023-03-08T07:46:31.939Z,10.50
2023-03-08T07:48:04.965Z,10.52
2023-03-08T07:49:39.146Z,11.15
2023-03-08T07:51:12.265Z,11.65
2023-03-08T07:52:45.138Z,11.23
2023-03-08T07:54:17.871Z,11.60
2023-03-08T07:55:50.595Z,11.23
2023-03-08T07:57:23.783Z,11.55
2023-03-08T07:58:57.507Z,12.10
2023-03-08T08:00:30.385Z,11.63
2023-03-08T08:02:03.251Z,11.95
2023-03-08T08:03:37.690Z,11.88
2023-03-08T08:05:11.928Z,12.23
2023-03-08T08:06:45.250Z,12.10
2023-03-08T08:08:18.166Z,12.20
2023-03-08T08:09:50.884Z,11.93
2023-03-08T08:11:23.992Z,12.80
2023-03-08T08:12:56.708Z,11.73
2023-03-08T08:14:29.379Z,12.52
2023-03-08T08:16:03.813Z,12.55
2023-03-08T08:17:36.568Z,13.50
2023-03-08T08:19:12.285Z,13.20
2023-03-08T08:20:46.340Z,13.27
2023-03-08T08:22:19.146Z,13.68
2023-03-08T08:23:51.883Z,13.13
2023-03-08T08:25:24.610Z,12.30
2023-03-08T08:26:57.345Z,13.20
2023-03-08T08:28:30.051Z,12.98
2023-03-08T08:30:02.851Z,13.18
2023-03-08T08:31:35.695Z,13.52
2023-03-08T08:33:08.437Z,13.68
2023-03-08T08:34:41.210Z,13.75
2023-03-08T08:36:17.605Z,14.27
2023-03-08T08:37:50.419Z,13.27
2023-03-08T08:39:23.570Z,13.00
2023-03-08T08:40:59.260Z,14.15
2023-03-08T08:42:31.984Z,12.90
2023-03-08T08:44:05.194Z,14.05
2023-03-08T08:45:38.025Z,13.82
2023-03-08T08:47:10.819Z,13.73
2023-03-08T08:48:43.754Z,13.98
2023-03-08T08:50:16.542Z,14.25
2023-03-08T08:51:50.584Z,14.05
2023-03-08T08:53:23.529Z,14.40
2023-03-08T08:54:56.726Z,13.75
2023-03-08T08:56:30.341Z,12.93
2023-03-08T08:58:03.996Z,13.45
2023-03-08T08:59:36.752Z,14.07
2023-03-08T09:01:15.701Z,13.45
2023-03-08T09:02:48.555Z,13.30
2023-03-08T09:04:21.578Z,14.52
2023-03-08T09:05:54.395Z,13.75
2023-03-08T09:07:28.504Z,15.45
2023-03-08T09:09:01.444Z,14.80
2023-03-08T09:10:36.319Z,13.88
2023-03-08T09:12:09.577Z,13.77
2023-03-08T09:13:42.338Z,14.00
2023-03-08T09:15:15.087Z,13.57
2023-03-08T09:16:47.811Z,13.85
2023-03-08T09:18:20.559Z,13.43
2023-03-08T09:19:53.280Z,13.18
2023-03-08T09:21:27.078Z,13.85
2023-03-08T09:23:01.192Z,15.10
2023-03-08T09:24:33.974Z,14.57
2023-03-08T09:26:07.005Z,14.52
2023-03-08T09:27:41.190Z,14.95
2023-03-08T09:29:13.937Z,13.93
2023-03-08T09:30:46.620Z,14.73
2023-03-08T09:32:19.410Z,14.82
2023-03-08T09:33:52.867Z,15.35
2023-03-08T09:35:25.689Z,14.18
2023-03-08T09:36:58.478Z,15.10
2023-03-08T09:38:32.582Z,14.60
2023-03-08T09:40:09.438Z,14.30
2023-03-08T09:41:54.906Z,14.25
2023-03-08T09:43:34.469Z,13.38
2023-03-08T09:45:20.679Z,13.57
2023-03-08T09:46:57.713Z,12.68
2023-03-08T09:48:32.271Z,14.27
2023-03-08T09:50:17.181Z,13.50
2023-03-08T09:51:59.104Z,12.65
2023-03-08T09:53:36.201Z,12.50
2023-03-08T09:55:28.262Z,12.55
2023-03-08T09:57:08.783Z,12.50
2023-03-08T09:58:45.129Z,13.68
2023-03-08T10:00:21.999Z,11.95
2023-03-08T10:02:01.279Z,12.35
2023-03-08T10:04:07.040Z,10.55
2023-03-08T10:05:44.419Z,12.32
2023-03-08T10:07:25.229Z,11.23
2023-03-08T10:09:04.259Z,12.13
2023-03-08T10:10:47.929Z,11.05
2023-03-08T10:12:29.285Z,11.27
2023-03-08T10:14:08.048Z,12.05
2023-03-08T10:15:45.002Z,12.52
2023-03-08T10:17:21.473Z,13.57
2023-03-08T10:18:58.374Z,13.27
2023-03-08T10:20:33.680Z,12.73
2023-03-08T10:22:14.859Z,13.55
2023-03-08T10:23:49.537Z,14.60
2023-03-08T10:25:26.838Z,13.77
2023-03-08T10:27:14.438Z,14.02
2023-03-08T10:28:47.142Z,14.40
2023-03-08T10:30:23.430Z,14.77
2023-03-08T10:31:56.127Z,15.15
2023-03-08T10:33:35.041Z,14.57
2023-03-08T10:35:08.363Z,14.80
2023-03-08T10:36:50.220Z,13.63
2023-03-08T10:38:23.503Z,14.50
2023-03-08T10:39:59.648Z,14.05
2023-03-08T10:41:38.478Z,13.90
2023-03-08T10:43:20.745Z,13.80
2023-03-08T10:44:56.618Z,14.25
2023-03-08T10:46:32.805Z,15.27
2023-03-08T10:48:07.310Z,15.32
2023-03-08T10:49:40.027Z,15.25
2023-03-08T10:51:18.138Z,14.77
2023-03-08T10:52:51.988Z,16.20
2023-03-08T10:54:25.535Z,14.98
2023-03-08T10:56:00.682Z,15.75
2023-03-08T10:57:35.183Z,14.23
2023-03-08T10:59:19.356Z,15.05
2023-03-08T11:00:56.581Z,14.35
2023-03-08T11:02:29.383Z,13.52
2023-03-08T11:04:03.596Z,14.05
2023-03-08T11:05:36.317Z,14.40
2023-03-08T11:07:12.637Z,13.15
2023-03-08T11:08:54.250Z,12.20
2023-03-08T11:10:28.217Z,13.40
2023-03-08T11:12:01.549Z,12.85
2023-03-08T11:13:38.321Z,14.40
2023-03-08T11:15:15.175Z,13.75
2023-03-08T11:17:04.335Z,13.77
2023-03-08T11:18:49.883Z,13.45
2023-03-08T11:20:28.421Z,12.65
2023-03-08T11:22:11.787Z,13.32
2023-03-08T11:23:51.085Z,12.90
2023-03-08T11:25:45.270Z,14.13
2023-03-08T11:27:33.103Z,13.35
2023-03-08T11:29:19.176Z,13.77
2023-03-08T11:31:05.228Z,14.25
2023-03-08T11:32:51.142Z,13.90
2023-03-08T11:34:43.922Z,13.82
2023-03-08T11:36:23.284Z,13.25
2023-03-08T11:38:03.488Z,13.85
2023-03-08T11:39:40.872Z,12.70
2023-03-08T11:41:25.245Z,13.57
2023-03-08T11:43:16.489Z,13.55
2023-03-08T11:45:07.967Z,12.90
2023-03-08T11:46:55.610Z,12.45
2023-03-08T11:48:40.617Z,13.05
2023-03-08T11:50:21.585Z,12.40
2023-03-08T11:52:01.009Z,13.52
2023-03-08T11:53:47.915Z,14.45
2023-03-08T11:55:34.146Z,13.82
2023-03-08T11:57:10.735Z,13.35
2023-03-08T11:58:49.378Z,14.00
2023-03-08T12:00:29.166Z,14.23
2023-03-08T12:02:05.267Z,14.63
2023-03-08T12:03:41.199Z,15.40
2023-03-08T12:05:17.021Z,14.35
2023-03-08T12:06:50.509Z,14.90
2023-03-08T12:08:28.424Z,14.52
2023-03-08T12:10:07.990Z,14.90
2023-03-08T12:11:45.323Z,13.95
2023-03-08T12:13:22.332Z,13.75
2023-03-08T12:15:00.077Z,14.68
2023-03-08T12:16:41.695Z,15.20
2023-03-08T12:18:21.261Z,15.73
2023-03-08T12:19:54.627Z,14.82
2023-03-08T12:21:36.362Z,14.90
2023-03-08T12:23:20.531Z,15.00
2023-03-08T12:24:58.698Z,13.68
2023-03-08T12:26:37.118Z,13.48
2023-03-08T12:28:17.601Z,14.52
2023-03-08T12:29:57.026Z,13.88
2023-03-08T12:31:32.772Z,14.00
2023-03-08T12:33:10.038Z,14.10
2023-03-08T12:34:46.080Z,13.63
2023-03-08T12:36:22.294Z,13.48
2023-03-08T12:38:00.453Z,13.85
2023-03-08T12:39:35.187Z,12.82
2023-03-08T12:41:23.237Z,13.45
2023-03-08T12:43:06.119Z,13.18
2023-03-08T12:44:40.194Z,13.23
2023-03-08T12:46:13.004Z,13.30
2023-03-08T12:47:56.838Z,12.30
2023-03-08T12:49:33.512Z,12.30
2023-03-08T12:51:18.577Z,11.75
2023-03-08T12:52:51.565Z,11.20
2023-03-08T12:54:24.720Z,10.98
2023-03-08T12:56:02.005Z,11.60
2023-03-08T12:57:42.789Z,10.52
2023-03-08T12:59:33.865Z,9.55
2023-03-08T13:01:08.465Z,9.10
2023-03-08T13:02:41.274Z,9.25
2023-03-08T13:04:39.944Z,8.40
2023-03-08T13:06:51.610Z,8.60
2023-03-08T13:08:35.341Z,8.52
2023-03-08T13:10:20.209Z,7.78
2023-03-08T13:11:59.660Z,7.75
2023-03-08T13:13:44.192Z,7.80
2023-03-08T13:15:23.169Z,7.72
2023-03-08T13:16:55.896Z,7.75
2023-03-08T13:18:28.666Z,7.90
2023-03-08T13:20:06.941Z,8.05
2023-03-08T13:21:48.311Z,7.35
2023-03-08T13:23:28.854Z,8.45
2023-03-08T13:25:07.778Z,8.30
2023-03-08T13:26:58.713Z,8.45
2023-03-08T13:28:46.504Z,7.60
2023-03-08T13:30:25.512Z,7.70
2023-03-08T13:31:58.564Z,8.27
2023-03-08T13:33:34.309Z,7.78
2023-03-08T13:35:07.700Z,8.43
2023-03-08T13:36:48.791Z,9.32
2023-03-08T13:38:23.178Z,9.13
2023-03-08T13:39:57.419Z,9.13
2023-03-08T13:41:34.804Z,9.07
2023-03-08T13:43:08.497Z,9.15
2023-03-08T13:44:41.272Z,10.18
2023-03-08T13:46:17.136Z,9.52
2023-03-08T13:47:50.178Z,9.30
2023-03-08T13:49:25.094Z,9.00
2023-03-08T13:50:59.365Z,9.07
2023-03-08T13:52:37.262Z,8.43
2023-03-08T13:54:16.300Z,8.02
2023-03-08T13:55:51.969Z,8.20
2023-03-08T13:57:27.697Z,8.32
2023-03-08T13:59:01.476Z,7.95
2023-03-08T14:00:36.061Z,7.88
2023-03-08T14:02:19.953Z,8.07
2023-03-08T14:03:54.916Z,7.88
2023-03-08T14:05:29.614Z,8.32
2023-03-08T14:07:05.507Z,8.18
2023-03-08T14:08:40.120Z,8.68
2023-03-08T14:10:14.452Z,10.55
2023-03-08T14:11:54.559Z,8.82
2023-03-08T14:13:30.516Z,8.00
2023-03-08T14:15:05.783Z,7.50
2023-03-08T14:16:41.856Z,7.63
2023-03-08T14:18:22.796Z,8.90
2023-03-08T14:19:57.456Z,9.80
2023-03-08T14:21:31.068Z,10.05
2023-03-08T14:23:03.889Z,10.98
2023-03-08T14:24:38.365Z,10.38
2023-03-08T14:26:32.451Z,13.43
2023-03-08T14:28:06.275Z,9.35
2023-03-08T14:29:39.056Z,8.95
2023-03-08T14:31:28.441Z,9.30
2023-03-08T14:33:08.023Z,9.02
2023-03-08T14:34:42.423Z,7.63
2023-03-08T14:36:16.375Z,7.93
2023-03-08T14:37:49.173Z,8.43
2023-03-08T14:39:24.100Z,8.40
2023-03-08T14:40:59.888Z,8.52
2023-03-08T14:42:41.366Z,9.05
2023-03-08T14:44:20.683Z,10.20
2023-03-08T14:45:56.025Z,11.98
2023-03-08T14:47:30.817Z,12.98
2023-03-08T14:49:06.178Z,11.23
2023-03-08T14:50:38.970Z,10.93
2023-03-08T14:52:21.128Z,10.88
2023-03-08T14:53:59.421Z,10.25
2023-03-08T14:55:34.909Z,11.05
2023-03-08T14:57:18.487Z,11.55
2023-03-08T14:58:53.757Z,10.80
2023-03-08T15:00:28.907Z,9.43
2023-03-08T15:02:01.645Z,10.60
2023-03-08T15:03:34.751Z,12.85
2023-03-08T15:05:14.148Z,12.65
2023-03-08T15:06:48.356Z,13.25
2023-03-08T15:08:21.650Z,13.80
2023-03-08T15:09:54.404Z,12.55
2023-03-08T15:11:31.242Z,12.18
2023-03-08T15:13:06.393Z,12.25
2023-03-08T15:14:39.176Z,13.23
2023-03-08T15:16:14.370Z,13.25
2023-03-08T15:17:47.521Z,12.73
2023-03-08T15:19:20.247Z,12.80
2023-03-08T15:20:53.122Z,12.23
2023-03-08T15:22:25.876Z,12.27
2023-03-08T15:23:59.463Z,12.80
2023-03-08T15:25:35.914Z,11.15
2023-03-08T15:27:11.172Z,11.15
2023-03-08T15:28:45.204Z,11.50
2023-03-08T15:30:20.277Z,11.27
2023-03-08T15:31:53.241Z,12.02
2023-03-08T15:33:25.991Z,11.35
2023-03-08T15:34:58.683Z,11.02
2023-03-08T15:36:34.686Z,10.23
2023-03-08T15:38:07.831Z,10.40
2023-03-08T15:39:40.551Z,10.90
2023-03-08T15:41:13.943Z,12.68
2023-03-08T15:42:46.719Z,14.50
2023-03-08T15:44:20.855Z,14.85
2023-03-08T15:45:53.569Z,15.95
2023-03-08T15:47:26.285Z,15.70
2023-03-08T15:48:59.233Z,16.02
2023-03-08T15:50:33.109Z,12.43
2023-03-08T15:52:08.634Z,10.30
2023-03-08T15:53:41.518Z,9.30
2023-03-08T15:55:15.227Z,8.65
2023-03-08T15:56:47.934Z,9.32
2023-03-08T15:58:20.633Z,7.78
2023-03-08T15:59:54.684Z,7.65
2023-03-08T16:01:28.206Z,7.93
2023-03-08T16:03:01.145Z,8.00
2023-03-08T16:04:33.944Z,7.95
2023-03-08T16:06:10.226Z,7.50
2023-03-08T16:07:43.354Z,8.13
2023-03-08T16:09:16.049Z,8.32
2023-03-08T16:10:48.735Z,8.13
2023-03-08T16:12:21.434Z,8.18
2023-03-08T16:13:54.522Z,8.05
2023-03-08T16:15:29.036Z,12.57
2023-03-08T16:17:01.816Z,13.32
2023-03-08T16:18:35.752Z,11.27
2023-03-08T16:20:09.956Z,11.30
2023-03-08T16:21:42.706Z,12.50
2023-03-08T16:23:15.451Z,9.55
2023-03-08T16:24:48.401Z,10.10
2023-03-08T16:26:21.806Z,9.30
2023-03-08T16:27:54.626Z,8.30
2023-03-08T16:29:27.718Z,8.45
2023-03-08T16:31:01.747Z,8.48
2023-03-08T16:32:35.408Z,8.20
2023-03-08T16:34:08.161Z,7.05
2023-03-08T16:35:41.804Z,6.68
2023-03-08T16:37:14.562Z,9.20
2023-03-08T16:38:47.267Z,23.17
2023-03-08T16:40:20.054Z,19.63
2023-03-08T16:41:53.065Z,14.57
2023-03-08T16:43:28.220Z,14.60
2023-03-08T16:45:03.075Z,14.07
2023-03-08T16:46:37.289Z,13.60
2023-03-08T16:48:10.008Z,12.15
2023-03-08T16:49:42.928Z,11.38
2023-03-08T16:51:17.347Z,11.18
2023-03-08T16:52:55.064Z,10.93
2023-03-08T16:54:27.832Z,10.40
2023-03-08T16:56:00.529Z,8.88
2023-03-08T16:57:33.316Z,7.97
2023-03-08T16:59:06.169Z,8.00
2023-03-08T17:00:39.009Z,7.40
2023-03-08T17:02:15.787Z,6.47
2023-03-08T17:03:49.033Z,6.20
2023-03-08T17:05:21.770Z,5.75
2023-03-08T17:06:54.497Z,5.63
2023-03-08T17:08:27.174Z,5.95
2023-03-08T17:09:59.977Z,5.28
2023-03-08T17:11:34.294Z,5.72
2023-03-08T17:13:07.028Z,6.93
2023-03-08T17:14:41.008Z,8.05
2023-03-08T17:16:13.974Z,10.13
2023-03-08T17:17:48.121Z,15.45
2023-03-08T17:19:20.918Z,15.88
2023-03-08T17:20:54.274Z,16.77
2023-03-08T17:22:27.178Z,13.68
2023-03-08T17:24:00.790Z,14.65
2023-03-08T17:25:35.337Z,13.75
2023-03-08T17:27:08.046Z,13.45
2023-03-08T17:28:41.580Z,11.45
2023-03-08T17:30:15.880Z,12.38
2023-03-08T17:31:48.841Z,12.10
2023-03-08T17:33:25.866Z,11.10
2023-03-08T17:34:58.822Z,12.00
2023-03-08T17:36:31.741Z,11.48
2023-03-08T17:38:04.634Z,11.98
2023-03-08T17:39:37.363Z,9.73
2023-03-08T17:41:13.775Z,9.32
2023-03-08T17:42:47.090Z,8.65
2023-03-08T17:44:19.777Z,9.70
2023-03-08T17:45:59.340Z,9.23
2023-03-08T17:47:32.074Z,10.45
2023-03-08T17:49:06.305Z,17.13
2023-03-08T17:50:39.032Z,16.80
2023-03-08T17:52:11.792Z,20.25
2023-03-08T17:53:45.919Z,21.60
2023-03-08T17:55:18.761Z,22.35
2023-03-08T17:56:51.537Z,19.25
2023-03-08T17:58:24.217Z,17.48
2023-03-08T17:59:57.093Z,23.48
2023-03-08T18:01:31.713Z,20.80
2023-03-08T18:03:04.676Z,18.13
2023-03-08T18:04:38.776Z,15.40
2023-03-08T18:06:19.642Z,17.40
2023-03-08T18:07:52.355Z,21.23
2023-03-08T18:09:25.089Z,17.48
2023-03-08T18:10:57.908Z,14.75
2023-03-08T18:12:31.036Z,14.80
2023-03-08T18:14:04.188Z,15.82
2023-03-08T18:15:36.938Z,14.88
2023-03-08T18:17:11.270Z,14.38
2023-03-08T18:18:45.598Z,12.60
2023-03-08T18:20:20.240Z,13.20
2023-03-08T18:21:54.917Z,14.07
2023-03-08T18:23:29.647Z,13.77
2023-03-08T18:25:02.371Z,13.43
2023-03-08T18:26:35.124Z,12.70
2023-03-08T18:28:08.176Z,12.55
2023-03-08T18:29:40.903Z,12.48
2023-03-08T18:31:17.180Z,11.82
2023-03-08T18:32:50.539Z,12.23
2023-03-08T18:34:23.292Z,12.18
2023-03-08T18:36:00.548Z,12.00
2023-03-08T18:37:33.484Z,12.40
2023-03-08T18:39:07.899Z,13.27
2023-03-08T18:40:40.650Z,13.50
2023-03-08T18:42:14.652Z,13.95
2023-03-08T18:43:47.357Z,12.98
2023-03-08T18:45:20.083Z,13.13
2023-03-08T18:46:52.834Z,13.18
2023-03-08T18:48:25.675Z,10.50
2023-03-08T18:49:58.372Z,10.80
2023-03-08T18:51:33.645Z,10.15
2023-03-08T18:53:06.334Z,9.50
2023-03-08T18:54:39.102Z,8.77
2023-03-08T18:56:11.889Z,8.35
2023-03-08T18:57:44.596Z,7.43
2023-03-08T18:59:17.482Z,7.30
2023-03-08T19:00:51.307Z,7.40
2023-03-08T19:02:27.554Z,6.45
2023-03-08T19:04:03.887Z,6.18
2023-03-08T19:05:36.650Z,5.93
2023-03-08T19:07:10.888Z,5.93
2023-03-08T19:08:44.281Z,5.65
2023-03-08T19:10:17.319Z,5.50
2023-03-08T19:11:50.098Z,4.53
2023-03-08T19:13:22.924Z,4.30
2023-03-08T19:14:55.619Z,4.32
2023-03-08T19:16:29.944Z,3.63
2023-03-08T19:18:02.747Z,3.53
2023-03-08T19:19:35.513Z,4.07
2023-03-08T19:21:15.012Z,3.80
2023-03-08T19:22:49.025Z,3.95
2023-03-08T19:24:22.505Z,4.40
2023-03-08T19:26:12.133Z,4.15
2023-03-08T19:27:44.924Z,5.00
2023-03-08T19:29:19.137Z,4.22
2023-03-08T19:30:51.915Z,4.13
2023-03-08T19:32:24.688Z,3.75
2023-03-08T19:33:57.670Z,3.53
2023-03-08T19:35:30.377Z,2.97
2023-03-08T19:37:03.807Z,2.80
2023-03-08T19:38:37.814Z,3.20
2023-03-08T19:40:11.796Z,2.53
2023-03-08T19:41:45.110Z,2.38
2023-03-08T19:43:17.887Z,2.45
2023-03-08T19:44:52.557Z,2.90
2023-03-08T19:46:25.464Z,3.47
2023-03-08T19:47:58.184Z,3.20
2023-03-08T19:49:33.050Z,2.80
2023-03-08T19:51:05.848Z,2.53
2023-03-08T19:52:38.545Z,2.10
2023-03-08T19:54:12.603Z,1.70
2023-03-08T19:55:50.101Z,1.40
2023-03-08T19:57:22.820Z,1.50
2023-03-08T19:58:57.084Z,1.17
2023-03-08T20:00:29.823Z,1.30
2023-03-08T20:02:02.542Z,1.50
2023-03-08T20:03:35.493Z,1.13
2023-03-08T20:05:08.758Z,1.10
2023-03-08T20:06:45.968Z,1.10
2023-03-08T20:08:18.994Z,1.10
2023-03-08T20:09:54.517Z,1.30
2023-03-08T20:11:27.435Z,1.20
2023-03-08T20:13:00.143Z,1.20
2023-03-08T20:14:32.860Z,1.23
2023-03-08T20:16:06.367Z,1.00
2023-03-08T20:17:39.292Z,1.30
2023-03-08T20:19:12.081Z,1.10
2023-03-08T20:20:44.959Z,1.30
2023-03-08T20:22:17.684Z,1.50
2023-03-08T20:23:55.253Z,1.60
2023-03-08T20:25:29.305Z,1.70
2023-03-08T20:27:03.963Z,1.30
2023-03-08T20:28:36.866Z,1.40
2023-03-08T20:30:11.799Z,1.40
2023-03-08T20:31:47.947Z,1.40
2023-03-08T20:33:20.722Z,1.38
2023-03-08T20:34:53.429Z,1.40
2023-03-08T20:36:26.286Z,1.70
2023-03-08T20:37:59.018Z,1.73
2023-03-08T20:39:31.741Z,2.00
2023-03-08T20:41:09.551Z,3.17
2023-03-08T20:42:42.239Z,2.75
2023-03-08T20:44:15.036Z,3.30
2023-03-08T20:45:49.051Z,7.63